sensor_id;sensor_type;location;lat;lon;timestamp;P1;durP1;ratioP1;P2;durP2;ratioP2
15077;SDS011;7638;49.760;8.646;2022-08-02T00:00:44;3.23;;;2.20;;
15077;SDS011;7638;49.760;8.646;2022-08-02T00:03:10;2.10;;;1.90;;
15077;SDS011;7638;49.760;8.646;2022-08-02T00:05:36;2.23;;;2.03;;
15077;SDS011;7638;49.760;8.646;2022-08-02T00:08:02;1.97;;;1.87;;
15077;SDS011;7638;49.760;8.646;2022-08-02T00:10:28;2.33;;;2.13;;
15077;SDS011;7638;49.760;8.646;2022-08-02T00:12:54;3.63;;;1.90;;
15077;SDS011;7638;49.760;8.646;2022-08-02T00:15:20;2.03;;;1.90;;
15077;SDS011;7638;49.760;8.646;2022-08-02T00:17:46;1.93;;;1.83;;
15077;SDS011;7638;49.760;8.646;2022-08-02T00:20:12;2.30;;;2.10;;
15077;SDS011;7638;49.760;8.646;2022-08-02T00:22:38;1.80;;;1.70;;
15077;SDS011;7638;49.760;8.646;2022-08-02T00:25:05;2.53;;;1.87;;
15077;SDS011;7638;49.760;8.646;2022-08-02T00:27:31;2.10;;;1.80;;
15077;SDS011;7638;49.760;8.646;2022-08-02T00:29:57;3.23;;;2.10;;
15077;SDS011;7638;49.760;8.646;2022-08-02T00:32:23;3.57;;;2.13;;
15077;SDS011;7638;49.760;8.646;2022-08-02T00:34:49;3.33;;;1.90;;
15077;SDS011;7638;49.760;8.646;2022-08-02T00:37:15;2.60;;;2.10;;
15077;SDS011;7638;49.760;8.646;2022-08-02T00:39:41;4.03;;;1.83;;
15077;SDS011;7638;49.760;8.646;2022-08-02T00:42:07;2.47;;;1.80;;
15077;SDS011;7638;49.760;8.646;2022-08-02T00:44:33;1.83;;;1.73;;
15077;SDS011;7638;49.760;8.646;2022-08-02T00:46:59;1.60;;;1.50;;
15077;SDS011;7638;49.760;8.646;2022-08-02T00:49:25;1.60;;;1.50;;
15077;SDS011;7638;49.760;8.646;2022-08-02T00:51:51;2.10;;;1.90;;
15077;SDS011;7638;49.760;8.646;2022-08-02T00:54:17;2.37;;;1.93;;
15077;SDS011;7638;49.760;8.646;2022-08-02T00:56:44;2.80;;;1.97;;
15077;SDS011;7638;49.760;8.646;2022-08-02T00:59:10;1.97;;;1.77;;
15077;SDS011;7638;49.760;8.646;2022-08-02T01:01:36;2.03;;;1.70;;
15077;SDS011;7638;49.760;8.646;2022-08-02T01:04:10;2.20;;;2.10;;
15077;SDS011;7638;49.760;8.646;2022-08-02T01:06:38;2.10;;;1.80;;
15077;SDS011;7638;49.760;8.646;2022-08-02T01:09:05;2.07;;;1.87;;
15077;SDS011;7638;49.760;8.646;2022-08-02T01:11:31;1.97;;;1.83;;
15077;SDS011;7638;49.760;8.646;2022-08-02T01:13:59;2.00;;;1.43;;
15077;SDS011;7638;49.760;8.646;2022-08-02T01:16:28;1.50;;;1.40;;
15077;SDS011;7638;49.760;8.646;2022-08-02T01:18:58;1.87;;;1.70;;
15077;SDS011;7638;49.760;8.646;2022-08-02T01:21:37;1.77;;;1.67;;
15077;SDS011;7638;49.760;8.646;2022-08-02T01:29:36;2.60;;;1.90;;
15077;SDS011;7638;49.760;8.646;2022-08-02T01:32:05;1.97;;;1.73;;
15077;SDS011;7638;49.760;8.646;2022-08-02T01:34:33;3.23;;;1.90;;
15077;SDS011;7638;49.760;8.646;2022-08-02T01:39:35;4.57;;;1.90;;
15077;SDS011;7638;49.760;8.646;2022-08-02T01:42:03;1.80;;;1.70;;
15077;SDS011;7638;49.760;8.646;2022-08-02T01:44:31;2.47;;;1.67;;
15077;SDS011;7638;49.760;8.646;2022-08-02T01:46:59;1.87;;;1.77;;
15077;SDS011;7638;49.760;8.646;2022-08-02T01:49:25;2.47;;;1.80;;
15077;SDS011;7638;49.760;8.646;2022-08-02T01:51:52;2.03;;;1.73;;
15077;SDS011;7638;49.760;8.646;2022-08-02T01:54:37;3.97;;;1.90;;
15077;SDS011;7638;49.760;8.646;2022-08-02T01:57:05;2.20;;;2.07;;
15077;SDS011;7638;49.760;8.646;2022-08-02T01:59:32;2.10;;;1.90;;
15077;SDS011;7638;49.760;8.646;2022-08-02T02:01:59;2.73;;;1.87;;
15077;SDS011;7638;49.760;8.646;2022-08-02T02:04:27;3.27;;;1.80;;
15077;SDS011;7638;49.760;8.646;2022-08-02T02:06:54;3.77;;;2.50;;
15077;SDS011;7638;49.760;8.646;2022-08-02T02:09:20;1.57;;;1.47;;
15077;SDS011;7638;49.760;8.646;2022-08-02T02:11:47;2.60;;;1.90;;
15077;SDS011;7638;49.760;8.646;2022-08-02T02:14:14;2.70;;;1.83;;
15077;SDS011;7638;49.760;8.646;2022-08-02T02:16:41;2.20;;;2.00;;
15077;SDS011;7638;49.760;8.646;2022-08-02T02:19:08;3.07;;;1.73;;
15077;SDS011;7638;49.760;8.646;2022-08-02T02:21:35;2.13;;;1.93;;
15077;SDS011;7638;49.760;8.646;2022-08-02T02:24:02;3.63;;;1.70;;
15077;SDS011;7638;49.760;8.646;2022-08-02T02:26:28;1.83;;;1.73;;
15077;SDS011;7638;49.760;8.646;2022-08-02T02:28:55;3.30;;;1.63;;
15077;SDS011;7638;49.760;8.646;2022-08-02T02:31:28;2.27;;;1.83;;
15077;SDS011;7638;49.760;8.646;2022-08-02T02:34:01;1.70;;;1.60;;
15077;SDS011;7638;49.760;8.646;2022-08-02T02:36:27;1.77;;;1.67;;
15077;SDS011;7638;49.760;8.646;2022-08-02T02:38:54;2.50;;;1.73;;
15077;SDS011;7638;49.760;8.646;2022-08-02T02:41:22;2.20;;;2.00;;
15077;SDS011;7638;49.760;8.646;2022-08-02T02:43:51;1.60;;;1.50;;
15077;SDS011;7638;49.760;8.646;2022-08-02T02:46:18;2.10;;;1.90;;
15077;SDS011;7638;49.760;8.646;2022-08-02T02:48:45;2.10;;;1.90;;
15077;SDS011;7638;49.760;8.646;2022-08-02T02:51:11;2.07;;;1.97;;
15077;SDS011;7638;49.760;8.646;2022-08-02T02:53:38;3.93;;;1.83;;
15077;SDS011;7638;49.760;8.646;2022-08-02T02:56:05;1.57;;;1.47;;
15077;SDS011;7638;49.760;8.646;2022-08-02T02:58:32;3.40;;;1.50;;
15077;SDS011;7638;49.760;8.646;2022-08-02T03:00:58;2.30;;;2.10;;
15077;SDS011;7638;49.760;8.646;2022-08-02T03:03:43;1.70;;;1.60;;
15077;SDS011;7638;49.760;8.646;2022-08-02T03:06:09;2.50;;;2.10;;
15077;SDS011;7638;49.760;8.646;2022-08-02T03:08:35;2.83;;;1.60;;
15077;SDS011;7638;49.760;8.646;2022-08-02T03:11:01;2.80;;;1.57;;
15077;SDS011;7638;49.760;8.646;2022-08-02T03:13:27;3.03;;;1.63;;
15077;SDS011;7638;49.760;8.646;2022-08-02T03:15:54;3.10;;;1.93;;
15077;SDS011;7638;49.760;8.646;2022-08-02T03:18:33;2.97;;;1.60;;
15077;SDS011;7638;49.760;8.646;2022-08-02T03:21:01;1.80;;;1.70;;
15077;SDS011;7638;49.760;8.646;2022-08-02T03:23:27;2.17;;;1.60;;
15077;SDS011;7638;49.760;8.646;2022-08-02T03:25:54;2.73;;;2.20;;
15077;SDS011;7638;49.760;8.646;2022-08-02T03:28:20;1.63;;;1.53;;
15077;SDS011;7638;49.760;8.646;2022-08-02T03:30:46;2.33;;;1.70;;
15077;SDS011;7638;49.760;8.646;2022-08-02T03:33:12;1.80;;;1.70;;
15077;SDS011;7638;49.760;8.646;2022-08-02T03:35:39;1.73;;;1.33;;
15077;SDS011;7638;49.760;8.646;2022-08-02T03:38:05;1.63;;;1.53;;
15077;SDS011;7638;49.760;8.646;2022-08-02T03:40:32;1.80;;;1.70;;
15077;SDS011;7638;49.760;8.646;2022-08-02T03:42:58;1.83;;;1.73;;
15077;SDS011;7638;49.760;8.646;2022-08-02T03:45:24;2.47;;;2.07;;
15077;SDS011;7638;49.760;8.646;2022-08-02T03:47:50;3.63;;;2.17;;
15077;SDS011;7638;49.760;8.646;2022-08-02T03:50:17;2.10;;;1.90;;
15077;SDS011;7638;49.760;8.646;2022-08-02T03:52:47;2.00;;;1.90;;
15077;SDS011;7638;49.760;8.646;2022-08-02T03:55:13;2.33;;;1.77;;
15077;SDS011;7638;49.760;8.646;2022-08-02T03:57:40;2.53;;;2.33;;
15077;SDS011;7638;49.760;8.646;2022-08-02T04:00:07;3.17;;;2.20;;
15077;SDS011;7638;49.760;8.646;2022-08-02T04:02:39;2.10;;;1.93;;
15077;SDS011;7638;49.760;8.646;2022-08-02T04:05:05;2.00;;;1.90;;
15077;SDS011;7638;49.760;8.646;2022-08-02T04:07:31;1.80;;;1.70;;
15077;SDS011;7638;49.760;8.646;2022-08-02T04:09:57;1.97;;;1.77;;
15077;SDS011;7638;49.760;8.646;2022-08-02T04:12:23;1.67;;;1.57;;
15077;SDS011;7638;49.760;8.646;2022-08-02T04:14:49;2.00;;;1.80;;
15077;SDS011;7638;49.760;8.646;2022-08-02T04:17:16;1.70;;;1.60;;
15077;SDS011;7638;49.760;8.646;2022-08-02T04:19:45;3.23;;;1.73;;
15077;SDS011;7638;49.760;8.646;2022-08-02T04:22:15;1.60;;;1.50;;
15077;SDS011;7638;49.760;8.646;2022-08-02T04:24:44;3.07;;;1.67;;
15077;SDS011;7638;49.760;8.646;2022-08-02T04:27:12;1.80;;;1.53;;
15077;SDS011;7638;49.760;8.646;2022-08-02T04:29:38;1.67;;;1.57;;
15077;SDS011;7638;49.760;8.646;2022-08-02T04:32:05;2.00;;;1.80;;
15077;SDS011;7638;49.760;8.646;2022-08-02T04:34:31;1.37;;;1.27;;
15077;SDS011;7638;49.760;8.646;2022-08-02T04:36:58;1.60;;;1.47;;
15077;SDS011;7638;49.760;8.646;2022-08-02T04:39:24;3.70;;;1.73;;
15077;SDS011;7638;49.760;8.646;2022-08-02T04:41:50;1.60;;;1.50;;
15077;SDS011;7638;49.760;8.646;2022-08-02T04:44:16;1.67;;;1.57;;
15077;SDS011;7638;49.760;8.646;2022-08-02T04:46:42;2.20;;;1.70;;
15077;SDS011;7638;49.760;8.646;2022-08-02T04:49:09;1.40;;;1.30;;
15077;SDS011;7638;49.760;8.646;2022-08-02T04:51:38;2.13;;;1.93;;
15077;SDS011;7638;49.760;8.646;2022-08-02T04:54:05;1.70;;;1.60;;
15077;SDS011;7638;49.760;8.646;2022-08-02T04:56:32;2.60;;;1.80;;
15077;SDS011;7638;49.760;8.646;2022-08-02T04:58:58;2.00;;;1.90;;
15077;SDS011;7638;49.760;8.646;2022-08-02T05:01:27;1.97;;;1.77;;
15077;SDS011;7638;49.760;8.646;2022-08-02T05:03:53;2.07;;;1.87;;
15077;SDS011;7638;49.760;8.646;2022-08-02T05:06:19;2.10;;;1.83;;
15077;SDS011;7638;49.760;8.646;2022-08-02T05:08:45;2.40;;;1.87;;
15077;SDS011;7638;49.760;8.646;2022-08-02T05:11:12;1.83;;;1.67;;
15077;SDS011;7638;49.760;8.646;2022-08-02T05:13:39;1.83;;;1.73;;
15077;SDS011;7638;49.760;8.646;2022-08-02T05:16:05;1.43;;;1.30;;
15077;SDS011;7638;49.760;8.646;2022-08-02T05:18:31;2.37;;;1.70;;
15077;SDS011;7638;49.760;8.646;2022-08-02T05:20:57;2.03;;;1.67;;
15077;SDS011;7638;49.760;8.646;2022-08-02T05:23:23;1.93;;;1.83;;
15077;SDS011;7638;49.760;8.646;2022-08-02T05:25:49;2.70;;;1.50;;
15077;SDS011;7638;49.760;8.646;2022-08-02T05:28:15;2.30;;;2.03;;
15077;SDS011;7638;49.760;8.646;2022-08-02T05:30:41;2.20;;;2.00;;
15077;SDS011;7638;49.760;8.646;2022-08-02T05:33:10;1.77;;;1.67;;
15077;SDS011;7638;49.760;8.646;2022-08-02T05:35:36;4.27;;;2.10;;
15077;SDS011;7638;49.760;8.646;2022-08-02T05:38:02;2.10;;;1.90;;
15077;SDS011;7638;49.760;8.646;2022-08-02T05:40:28;2.90;;;2.60;;
15077;SDS011;7638;49.760;8.646;2022-08-02T05:42:54;2.67;;;2.13;;
15077;SDS011;7638;49.760;8.646;2022-08-02T05:45:21;2.23;;;2.00;;
15077;SDS011;7638;49.760;8.646;2022-08-02T05:47:47;2.37;;;2.17;;
15077;SDS011;7638;49.760;8.646;2022-08-02T05:50:13;2.33;;;2.13;;
15077;SDS011;7638;49.760;8.646;2022-08-02T05:52:47;2.60;;;2.40;;
15077;SDS011;7638;49.760;8.646;2022-08-02T05:55:33;3.93;;;2.20;;
15077;SDS011;7638;49.760;8.646;2022-08-02T05:58:12;3.60;;;3.30;;
15077;SDS011;7638;49.760;8.646;2022-08-02T06:00:40;4.10;;;2.50;;
15077;SDS011;7638;49.760;8.646;2022-08-02T06:03:25;2.60;;;2.40;;
15077;SDS011;7638;49.760;8.646;2022-08-02T06:06:00;4.20;;;3.60;;
15077;SDS011;7638;49.760;8.646;2022-08-02T06:08:40;2.20;;;2.10;;
15077;SDS011;7638;49.760;8.646;2022-08-02T06:11:07;2.87;;;2.67;;
15077;SDS011;7638;49.760;8.646;2022-08-02T06:13:37;4.57;;;2.77;;
15077;SDS011;7638;49.760;8.646;2022-08-02T06:16:03;2.60;;;2.40;;
15077;SDS011;7638;49.760;8.646;2022-08-02T06:18:29;2.70;;;2.50;;
15077;SDS011;7638;49.760;8.646;2022-08-02T06:20:56;2.70;;;2.23;;
15077;SDS011;7638;49.760;8.646;2022-08-02T06:23:23;2.07;;;1.93;;
15077;SDS011;7638;49.760;8.646;2022-08-02T06:25:50;2.77;;;2.57;;
15077;SDS011;7638;49.760;8.646;2022-08-02T06:28:17;1.90;;;1.70;;
15077;SDS011;7638;49.760;8.646;2022-08-02T06:30:44;2.60;;;2.40;;
15077;SDS011;7638;49.760;8.646;2022-08-02T06:33:13;2.53;;;2.33;;
15077;SDS011;7638;49.760;8.646;2022-08-02T06:38:08;2.10;;;2.00;;
15077;SDS011;7638;49.760;8.646;2022-08-02T06:43:10;3.00;;;2.70;;
15077;SDS011;7638;49.760;8.646;2022-08-02T06:45:39;3.50;;;1.90;;
15077;SDS011;7638;49.760;8.646;2022-08-02T06:48:06;2.20;;;2.00;;
15077;SDS011;7638;49.760;8.646;2022-08-02T06:50:32;2.17;;;1.97;;
15077;SDS011;7638;49.760;8.646;2022-08-02T06:52:58;3.80;;;2.77;;
15077;SDS011;7638;49.760;8.646;2022-08-02T06:55:25;2.10;;;2.00;;
15077;SDS011;7638;49.760;8.646;2022-08-02T06:57:53;4.30;;;2.13;;
15077;SDS011;7638;49.760;8.646;2022-08-02T07:00:19;2.13;;;1.93;;
15077;SDS011;7638;49.760;8.646;2022-08-02T07:02:45;4.40;;;2.20;;
15077;SDS011;7638;49.760;8.646;2022-08-02T07:05:11;2.37;;;2.10;;
15077;SDS011;7638;49.760;8.646;2022-08-02T07:07:37;4.10;;;1.87;;
15077;SDS011;7638;49.760;8.646;2022-08-02T07:10:03;4.97;;;2.10;;
15077;SDS011;7638;49.760;8.646;2022-08-02T07:12:30;3.50;;;1.80;;
15077;SDS011;7638;49.760;8.646;2022-08-02T07:15:00;2.30;;;2.10;;
15077;SDS011;7638;49.760;8.646;2022-08-02T07:17:27;2.33;;;2.13;;
15077;SDS011;7638;49.760;8.646;2022-08-02T07:19:53;2.50;;;2.00;;
15077;SDS011;7638;49.760;8.646;2022-08-02T07:22:19;2.17;;;2.03;;
15077;SDS011;7638;49.760;8.646;2022-08-02T07:24:47;3.60;;;1.77;;
15077;SDS011;7638;49.760;8.646;2022-08-02T07:27:13;3.93;;;1.90;;
15077;SDS011;7638;49.760;8.646;2022-08-02T07:29:39;3.50;;;1.90;;
15077;SDS011;7638;49.760;8.646;2022-08-02T07:32:06;3.70;;;1.93;;
15077;SDS011;7638;49.760;8.646;2022-08-02T07:34:32;2.17;;;1.93;;
15077;SDS011;7638;49.760;8.646;2022-08-02T07:36:58;2.63;;;1.97;;
15077;SDS011;7638;49.760;8.646;2022-08-02T07:39:25;2.93;;;1.77;;
15077;SDS011;7638;49.760;8.646;2022-08-02T07:41:51;2.87;;;2.47;;
15077;SDS011;7638;49.760;8.646;2022-08-02T07:44:17;2.33;;;1.97;;
15077;SDS011;7638;49.760;8.646;2022-08-02T07:46:44;2.13;;;1.93;;
15077;SDS011;7638;49.760;8.646;2022-08-02T07:49:11;4.87;;;2.20;;
15077;SDS011;7638;49.760;8.646;2022-08-02T07:51:42;3.10;;;1.70;;
15077;SDS011;7638;49.760;8.646;2022-08-02T07:54:08;1.50;;;1.40;;
15077;SDS011;7638;49.760;8.646;2022-08-02T07:56:34;5.53;;;1.90;;
15077;SDS011;7638;49.760;8.646;2022-08-02T07:59:01;2.23;;;2.03;;
15077;SDS011;7638;49.760;8.646;2022-08-02T08:01:27;3.00;;;1.60;;
15077;SDS011;7638;49.760;8.646;2022-08-02T08:03:53;2.23;;;1.70;;
15077;SDS011;7638;49.760;8.646;2022-08-02T08:06:19;1.53;;;1.40;;
15077;SDS011;7638;49.760;8.646;2022-08-02T08:08:45;1.40;;;1.30;;
15077;SDS011;7638;49.760;8.646;2022-08-02T08:11:11;3.40;;;1.57;;
15077;SDS011;7638;49.760;8.646;2022-08-02T08:13:37;1.63;;;1.03;;
15077;SDS011;7638;49.760;8.646;2022-08-02T08:16:03;1.70;;;1.10;;
15077;SDS011;7638;49.760;8.646;2022-08-02T08:18:30;2.83;;;1.13;;
15077;SDS011;7638;49.760;8.646;2022-08-02T08:20:56;1.20;;;1.17;;
15077;SDS011;7638;49.760;8.646;2022-08-02T08:23:22;1.30;;;1.20;;
15077;SDS011;7638;49.760;8.646;2022-08-02T08:25:48;1.00;;;0.97;;
15077;SDS011;7638;49.760;8.646;2022-08-02T08:28:15;1.43;;;1.10;;
15077;SDS011;7638;49.760;8.646;2022-08-02T08:30:41;1.10;;;0.93;;
15077;SDS011;7638;49.760;8.646;2022-08-02T08:33:07;2.30;;;1.10;;
15077;SDS011;7638;49.760;8.646;2022-08-02T08:35:33;1.13;;;1.00;;
15077;SDS011;7638;49.760;8.646;2022-08-02T08:38:00;0.90;;;0.90;;
15077;SDS011;7638;49.760;8.646;2022-08-02T08:40:26;1.10;;;0.80;;
15077;SDS011;7638;49.760;8.646;2022-08-02T08:42:52;2.17;;;1.10;;
15077;SDS011;7638;49.760;8.646;2022-08-02T08:45:18;1.63;;;1.23;;
15077;SDS011;7638;49.760;8.646;2022-08-02T08:47:44;0.93;;;0.93;;
15077;SDS011;7638;49.760;8.646;2022-08-02T08:50:18;1.33;;;1.03;;
15077;SDS011;7638;49.760;8.646;2022-08-02T08:52:48;1.70;;;1.10;;
15077;SDS011;7638;49.760;8.646;2022-08-02T08:55:18;1.70;;;1.30;;
15077;SDS011;7638;49.760;8.646;2022-08-02T08:57:47;0.83;;;0.83;;
15077;SDS011;7638;49.760;8.646;2022-08-02T09:00:13;1.37;;;0.93;;
15077;SDS011;7638;49.760;8.646;2022-08-02T09:02:41;1.20;;;1.03;;
15077;SDS011;7638;49.760;8.646;2022-08-02T09:05:10;1.30;;;1.20;;
15077;SDS011;7638;49.760;8.646;2022-08-02T09:07:37;1.23;;;1.00;;
15077;SDS011;7638;49.760;8.646;2022-08-02T09:13:04;0.97;;;0.83;;
15077;SDS011;7638;49.760;8.646;2022-08-02T09:15:31;1.87;;;0.97;;
15077;SDS011;7638;49.760;8.646;2022-08-02T09:17:56;2.30;;;1.93;;
15077;SDS011;7638;49.760;8.646;2022-08-02T09:20:23;0.80;;;0.80;;
15077;SDS011;7638;49.760;8.646;2022-08-02T09:23:05;1.77;;;1.10;;
15077;SDS011;7638;49.760;8.646;2022-08-02T09:25:31;1.50;;;1.13;;
15077;SDS011;7638;49.760;8.646;2022-08-02T09:27:57;1.00;;;1.00;;
15077;SDS011;7638;49.760;8.646;2022-08-02T09:30:25;2.20;;;1.10;;
15077;SDS011;7638;49.760;8.646;2022-08-02T09:32:54;1.33;;;1.10;;
15077;SDS011;7638;49.760;8.646;2022-08-02T09:38:16;1.30;;;1.20;;
15077;SDS011;7638;49.760;8.646;2022-08-02T09:40:42;1.20;;;1.10;;
15077;SDS011;7638;49.760;8.646;2022-08-02T09:43:08;3.33;;;0.90;;
15077;SDS011;7638;49.760;8.646;2022-08-02T09:45:34;1.13;;;1.03;;
15077;SDS011;7638;49.760;8.646;2022-08-02T09:48:02;1.10;;;1.00;;
15077;SDS011;7638;49.760;8.646;2022-08-02T09:50:30;1.63;;;0.90;;
15077;SDS011;7638;49.760;8.646;2022-08-02T09:52:56;2.70;;;0.90;;
15077;SDS011;7638;49.760;8.646;2022-08-02T09:55:24;1.53;;;1.27;;
15077;SDS011;7638;49.760;8.646;2022-08-02T09:57:50;1.20;;;1.10;;
15077;SDS011;7638;49.760;8.646;2022-08-02T10:00:17;1.47;;;1.00;;
15077;SDS011;7638;49.760;8.646;2022-08-02T10:05:44;1.40;;;1.23;;
15077;SDS011;7638;49.760;8.646;2022-08-02T10:08:10;1.43;;;1.00;;
15077;SDS011;7638;49.760;8.646;2022-08-02T10:10:36;1.77;;;1.30;;
15077;SDS011;7638;49.760;8.646;2022-08-02T10:13:02;1.90;;;1.10;;
15077;SDS011;7638;49.760;8.646;2022-08-02T10:15:29;1.13;;;0.93;;
15077;SDS011;7638;49.760;8.646;2022-08-02T10:17:55;2.30;;;1.20;;
15077;SDS011;7638;49.760;8.646;2022-08-02T10:20:21;3.07;;;1.47;;
15077;SDS011;7638;49.760;8.646;2022-08-02T10:22:47;1.33;;;1.23;;
15077;SDS011;7638;49.760;8.646;2022-08-02T10:25:15;1.60;;;1.13;;
15077;SDS011;7638;49.760;8.646;2022-08-02T10:27:41;1.57;;;1.40;;
15077;SDS011;7638;49.760;8.646;2022-08-02T10:30:12;1.60;;;1.00;;
15077;SDS011;7638;49.760;8.646;2022-08-02T10:32:41;1.37;;;1.07;;
15077;SDS011;7638;49.760;8.646;2022-08-02T10:35:12;1.50;;;1.10;;
15077;SDS011;7638;49.760;8.646;2022-08-02T10:37:38;1.20;;;1.10;;
15077;SDS011;7638;49.760;8.646;2022-08-02T10:40:05;1.53;;;1.20;;
15077;SDS011;7638;49.760;8.646;2022-08-02T10:42:48;3.77;;;1.30;;
15077;SDS011;7638;49.760;8.646;2022-08-02T10:45:15;1.83;;;1.10;;
15077;SDS011;7638;49.760;8.646;2022-08-02T10:55:44;1.73;;;1.30;;
15077;SDS011;7638;49.760;8.646;2022-08-02T10:58:24;2.30;;;1.20;;
15077;SDS011;7638;49.760;8.646;2022-08-02T11:00:55;1.10;;;1.07;;
15077;SDS011;7638;49.760;8.646;2022-08-02T11:06:07;1.50;;;1.00;;
15077;SDS011;7638;49.760;8.646;2022-08-02T11:08:33;1.30;;;1.03;;
15077;SDS011;7638;49.760;8.646;2022-08-02T11:11:00;1.00;;;0.93;;
15077;SDS011;7638;49.760;8.646;2022-08-02T11:19:10;1.93;;;1.27;;
15077;SDS011;7638;49.760;8.646;2022-08-02T11:21:36;1.40;;;1.13;;
15077;SDS011;7638;49.760;8.646;2022-08-02T11:26:47;2.37;;;1.17;;
15077;SDS011;7638;49.760;8.646;2022-08-02T11:29:13;2.23;;;1.10;;
15077;SDS011;7638;49.760;8.646;2022-08-02T11:31:40;1.07;;;1.00;;
15077;SDS011;7638;49.760;8.646;2022-08-02T11:34:07;1.23;;;1.00;;
15077;SDS011;7638;49.760;8.646;2022-08-02T11:36:41;0.80;;;0.80;;
15077;SDS011;7638;49.760;8.646;2022-08-02T11:39:08;1.53;;;1.10;;
15077;SDS011;7638;49.760;8.646;2022-08-02T11:41:34;0.93;;;0.80;;
15077;SDS011;7638;49.760;8.646;2022-08-02T11:44:00;1.10;;;1.00;;
15077;SDS011;7638;49.760;8.646;2022-08-02T11:46:26;0.93;;;0.80;;
15077;SDS011;7638;49.760;8.646;2022-08-02T11:48:52;0.73;;;0.73;;
15077;SDS011;7638;49.760;8.646;2022-08-02T11:51:18;1.50;;;1.40;;
15077;SDS011;7638;49.760;8.646;2022-08-02T11:56:10;0.80;;;0.80;;
15077;SDS011;7638;49.760;8.646;2022-08-02T11:58:37;0.80;;;0.80;;
15077;SDS011;7638;49.760;8.646;2022-08-02T12:01:08;1.30;;;0.87;;
15077;SDS011;7638;49.760;8.646;2022-08-02T12:03:35;1.20;;;1.10;;
15077;SDS011;7638;49.760;8.646;2022-08-02T12:06:02;1.40;;;0.90;;
15077;SDS011;7638;49.760;8.646;2022-08-02T12:08:29;1.97;;;1.10;;
15077;SDS011;7638;49.760;8.646;2022-08-02T12:10:55;1.90;;;1.10;;
15077;SDS011;7638;49.760;8.646;2022-08-02T12:13:21;1.10;;;1.00;;
15077;SDS011;7638;49.760;8.646;2022-08-02T12:15:47;1.13;;;1.07;;
15077;SDS011;7638;49.760;8.646;2022-08-02T12:18:17;0.90;;;0.90;;
15077;SDS011;7638;49.760;8.646;2022-08-02T12:21:03;2.53;;;0.83;;
15077;SDS011;7638;49.760;8.646;2022-08-02T12:23:44;1.63;;;1.40;;
15077;SDS011;7638;49.760;8.646;2022-08-02T12:26:10;1.30;;;1.20;;
15077;SDS011;7638;49.760;8.646;2022-08-02T12:28:38;1.40;;;1.00;;
15077;SDS011;7638;49.760;8.646;2022-08-02T12:31:05;0.90;;;0.90;;
15077;SDS011;7638;49.760;8.646;2022-08-02T12:33:44;0.90;;;0.90;;
15077;SDS011;7638;49.760;8.646;2022-08-02T12:38:50;1.20;;;1.10;;
15077;SDS011;7638;49.760;8.646;2022-08-02T12:41:16;1.07;;;1.00;;
15077;SDS011;7638;49.760;8.646;2022-08-02T12:43:42;1.10;;;0.87;;
15077;SDS011;7638;49.760;8.646;2022-08-02T12:46:15;1.50;;;1.07;;
15077;SDS011;7638;49.760;8.646;2022-08-02T12:48:41;2.10;;;1.07;;
15077;SDS011;7638;49.760;8.646;2022-08-02T12:51:17;1.20;;;1.10;;
15077;SDS011;7638;49.760;8.646;2022-08-02T12:53:44;1.27;;;1.00;;
15077;SDS011;7638;49.760;8.646;2022-08-02T12:56:10;1.50;;;0.90;;
15077;SDS011;7638;49.760;8.646;2022-08-02T12:58:49;2.60;;;0.97;;
15077;SDS011;7638;49.760;8.646;2022-08-02T13:01:23;1.17;;;1.07;;
15077;SDS011;7638;49.760;8.646;2022-08-02T13:03:50;0.80;;;0.80;;
15077;SDS011;7638;49.760;8.646;2022-08-02T13:06:19;3.67;;;1.10;;
15077;SDS011;7638;49.760;8.646;2022-08-02T13:08:45;0.87;;;0.87;;
15077;SDS011;7638;49.760;8.646;2022-08-02T13:11:12;0.93;;;0.93;;
15077;SDS011;7638;49.760;8.646;2022-08-02T13:13:38;1.47;;;0.90;;
15077;SDS011;7638;49.760;8.646;2022-08-02T13:16:04;3.03;;;0.87;;
15077;SDS011;7638;49.760;8.646;2022-08-02T13:18:30;0.97;;;0.87;;
15077;SDS011;7638;49.760;8.646;2022-08-02T13:20:57;1.37;;;1.00;;
15077;SDS011;7638;49.760;8.646;2022-08-02T13:23:23;3.37;;;1.50;;
15077;SDS011;7638;49.760;8.646;2022-08-02T13:25:49;0.83;;;0.70;;
15077;SDS011;7638;49.760;8.646;2022-08-02T13:28:17;1.13;;;0.93;;
15077;SDS011;7638;49.760;8.646;2022-08-02T13:30:43;1.00;;;0.90;;
15077;SDS011;7638;49.760;8.646;2022-08-02T13:33:11;1.20;;;1.10;;
15077;SDS011;7638;49.760;8.646;2022-08-02T13:35:37;3.60;;;0.90;;
15077;SDS011;7638;49.760;8.646;2022-08-02T13:38:02;1.27;;;0.87;;
15077;SDS011;7638;49.760;8.646;2022-08-02T13:40:30;1.47;;;1.00;;
15077;SDS011;7638;49.760;8.646;2022-08-02T13:42:56;3.47;;;1.00;;
15077;SDS011;7638;49.760;8.646;2022-08-02T13:45:22;1.80;;;1.00;;
15077;SDS011;7638;49.760;8.646;2022-08-02T13:47:52;1.20;;;0.90;;
15077;SDS011;7638;49.760;8.646;2022-08-02T13:50:18;0.97;;;0.97;;
15077;SDS011;7638;49.760;8.646;2022-08-02T13:52:44;0.87;;;0.73;;
15077;SDS011;7638;49.760;8.646;2022-08-02T13:55:10;1.83;;;1.47;;
15077;SDS011;7638;49.760;8.646;2022-08-02T13:57:36;1.20;;;1.10;;
15077;SDS011;7638;49.760;8.646;2022-08-02T14:00:05;0.83;;;0.83;;
15077;SDS011;7638;49.760;8.646;2022-08-02T14:02:31;1.30;;;1.20;;
15077;SDS011;7638;49.760;8.646;2022-08-02T14:04:57;1.23;;;1.03;;
15077;SDS011;7638;49.760;8.646;2022-08-02T14:07:23;0.80;;;0.80;;
15077;SDS011;7638;49.760;8.646;2022-08-02T14:09:49;0.90;;;0.90;;
15077;SDS011;7638;49.760;8.646;2022-08-02T14:12:16;1.83;;;0.80;;
15077;SDS011;7638;49.760;8.646;2022-08-02T14:14:42;2.30;;;1.73;;
15077;SDS011;7638;49.760;8.646;2022-08-02T14:17:08;2.50;;;0.87;;
15077;SDS011;7638;49.760;8.646;2022-08-02T14:19:35;1.13;;;0.90;;
15077;SDS011;7638;49.760;8.646;2022-08-02T14:22:01;1.00;;;0.90;;
15077;SDS011;7638;49.760;8.646;2022-08-02T14:24:27;1.23;;;1.13;;
15077;SDS011;7638;49.760;8.646;2022-08-02T14:26:53;1.33;;;1.03;;
15077;SDS011;7638;49.760;8.646;2022-08-02T14:29:19;2.53;;;0.73;;
15077;SDS011;7638;49.760;8.646;2022-08-02T14:31:48;0.80;;;0.80;;
15077;SDS011;7638;49.760;8.646;2022-08-02T14:34:14;1.73;;;1.20;;
15077;SDS011;7638;49.760;8.646;2022-08-02T14:36:40;2.43;;;0.80;;
15077;SDS011;7638;49.760;8.646;2022-08-02T14:39:06;1.60;;;1.30;;
15077;SDS011;7638;49.760;8.646;2022-08-02T14:41:32;2.13;;;1.10;;
15077;SDS011;7638;49.760;8.646;2022-08-02T14:44:00;1.83;;;1.20;;
15077;SDS011;7638;49.760;8.646;2022-08-02T14:46:29;1.40;;;1.00;;
15077;SDS011;7638;49.760;8.646;2022-08-02T14:48:55;2.83;;;0.90;;
15077;SDS011;7638;49.760;8.646;2022-08-02T14:51:21;11.37;;;1.60;;
15077;SDS011;7638;49.760;8.646;2022-08-02T14:53:47;0.80;;;0.80;;
15077;SDS011;7638;49.760;8.646;2022-08-02T14:56:13;0.93;;;0.80;;
15077;SDS011;7638;49.760;8.646;2022-08-02T14:58:39;1.40;;;1.00;;
15077;SDS011;7638;49.760;8.646;2022-08-02T15:01:05;3.33;;;1.50;;
15077;SDS011;7638;49.760;8.646;2022-08-02T15:03:31;1.33;;;1.17;;
15077;SDS011;7638;49.760;8.646;2022-08-02T15:05:57;1.42;;;0.80;;
15077;SDS011;7638;49.760;8.646;2022-08-02T15:08:23;1.90;;;0.90;;
15077;SDS011;7638;49.760;8.646;2022-08-02T15:10:50;0.90;;;0.82;;
15077;SDS011;7638;49.760;8.646;2022-08-02T15:13:18;3.53;;;1.00;;
15077;SDS011;7638;49.760;8.646;2022-08-02T15:15:44;1.38;;;1.10;;
15077;SDS011;7638;49.760;8.646;2022-08-02T15:18:11;0.88;;;0.88;;
15077;SDS011;7638;49.760;8.646;2022-08-02T15:20:37;5.15;;;0.88;;
15077;SDS011;7638;49.760;8.646;2022-08-02T15:23:03;0.80;;;0.80;;
15077;SDS011;7638;49.760;8.646;2022-08-02T15:25:29;1.25;;;1.15;;
15077;SDS011;7638;49.760;8.646;2022-08-02T15:27:55;1.35;;;0.77;;
15077;SDS011;7638;49.760;8.646;2022-08-02T15:30:21;4.63;;;0.98;;
15077;SDS011;7638;49.760;8.646;2022-08-02T15:32:47;3.00;;;1.10;;
15077;SDS011;7638;49.760;8.646;2022-08-02T15:35:14;1.40;;;0.80;;
15077;SDS011;7638;49.760;8.646;2022-08-02T15:37:40;1.52;;;0.95;;
15077;SDS011;7638;49.760;8.646;2022-08-02T15:40:06;1.02;;;0.95;;
15077;SDS011;7638;49.760;8.646;2022-08-02T15:42:32;0.98;;;0.88;;
15077;SDS011;7638;49.760;8.646;2022-08-02T15:44:58;1.35;;;1.00;;
15077;SDS011;7638;49.760;8.646;2022-08-02T15:47:24;1.10;;;1.00;;